Flight Track Log - Related Links

Times and Time Zones

All times are in EDT time to prevent confusion due to time zone crossing. See the AAY843 flight status page for this flight to view local times or setup timezone preferences in your user account.

Time Position Orientation Groundspeed Altitude Reporting Facility
EDT Latitude Longitude Course Direction KTS MPH feet Rate Location/Type
Fri 07:56:10 PM 43.1081 -76.1422 267° West 162 186 1,400  Level Boston Center
Fri 07:56:53 PM 43.1061 -76.1911 267° West 183 211 2,700 2,257 Climbing Boston Center
Fri 07:57:59 PM 43.0544 -76.2567 223° Southwest 267 307 5,500 2,649 Climbing Boston Center
Fri 07:58:10 PM 43.0431 -76.2647 207° Southwest 244 281 6,100 3,083 Climbing Boston Center
Fri 07:59:11 PM 42.9781 -76.3144 209° Southwest 264 304 9,200 1,918 Climbing Boston Center
Fri 08:00:12 PM 42.9050 -76.3769 212° Southwest 316 364 10,000 1,328 Climbing Boston Center
Fri 08:01:13 PM 42.8175 -76.4453 210° Southwest 358 412 11,900 2,098 Climbing Boston Center
Fri 08:02:15 PM 42.7317 -76.5150 211° Southwest 369 425 14,300 2,390 Climbing Boston Center
Fri 08:03:16 PM 42.6386 -76.5908 211° Southwest 385 443 16,800 2,213 Climbing Boston Center
Fri 08:04:17 PM 42.5414 -76.6689 211° Southwest 401 461 18,800 2,311 Climbing Boston Center
Fri 08:05:18 PM 42.4217 -76.7653 211° Southwest 412 474 21,500 2,164 Climbing Boston Center
Fri 08:06:19 PM 42.3206 -76.8464 211° Southwest 419 482 23,200 1,756 Climbing Boston Center
Fri 08:07:21 PM 42.2153 -76.9300 210° Southwest 430 495 25,100 1,902 Climbing Boston Center
Fri 08:08:22 PM 42.1083 -77.0028 207° Southwest 432 497 27,100 1,623 Climbing Boston Center
Fri 08:09:23 PM 41.9747 -76.9881 175° South 483 556 28,400 1,180 Climbing Boston Center
Fri 08:10:24 PM 41.8367 -76.9394 165° South 505 581 29,500 1,067 Climbing Boston Center
Fri 08:11:38 PM 41.6703 -76.8858 166° South 502 578 30,800 1,030 Climbing New York Center
Fri 08:12:38 PM 41.5328 -76.8428 167° South 507 583 31,800 1,100 Climbing New York Center
Fri 08:13:38 PM 41.3928 -76.8522 183° South 473 544 33,000 600 Climbing New York Center
Fri 08:14:38 PM 41.2756 -76.9025 198° South 458 527 33,000  Level New York Center
Fri 08:15:38 PM 41.1564 -76.9494 197° South 453 521 33,000  Level New York Center
Fri 08:16:38 PM 41.0394 -76.9967 197° South 453 521 33,000  Level New York Center
Fri 08:17:38 PM 40.9222 -77.0436 197° South 448 516 33,000  Level New York Center
Fri 08:18:38 PM 40.8072 -77.0906 197° South 448 516 33,000  Level New York Center
Fri 08:19:38 PM 40.6900 -77.1375 197° South 448 516 33,000  Level New York Center
Fri 08:20:38 PM 40.5753 -77.1814 196° South 448 516 33,000  Level New York Center
Fri 08:21:38 PM 40.4600 -77.2281 197° South 442 509 33,000  Level New York Center
Fri 08:23:46 PM 40.2158 -77.3219 196° South 433 498 33,000  Level Washington Center
Fri 08:24:47 PM 40.0986 -77.3678 197° South 438 504 33,000  Level Washington Center
Fri 08:25:45 PM 39.9853 -77.4139 197° South 438 504 33,000  Level Washington Center
Fri 08:26:45 PM 39.8700 -77.4569 196° South 438 504 33,000  Level Washington Center
Fri 08:27:47 PM 39.7528 -77.5025 197° South 438 504 33,000  Level Washington Center
Fri 08:28:45 PM 39.6353 -77.5478 197° South 444 511 33,000  Level Washington Center
Fri 08:29:46 PM 39.5200 -77.5903 196° South 444 511 33,000  Level Washington Center
Fri 08:30:47 PM 39.4047 -77.6356 197° South 444 511 33,000 -496 Level Washington Center
Fri 08:31:47 PM 39.2892 -77.6806 197° South 444 511 32,000 -508 Descending Washington Center
Fri 08:32:45 PM 39.1717 -77.7228 196° South 444 511 32,000  Level Washington Center
Fri 08:33:47 PM 39.0542 -77.7675 196° South 438 504 32,000  Level Washington Center
Fri 08:34:45 PM 38.9514 -77.8069 197° South 443 510 32,000  Level Washington Center
Fri 08:35:45 PM 38.8317 -77.8514 196° South 443 510 32,000  Level Washington Center
Fri 08:36:46 PM 38.7142 -77.8983 197° South 448 516 32,000  Level Washington Center
Fri 08:37:46 PM 38.5986 -77.9400 196° South 442 509 32,000  Level Washington Center
Fri 08:38:47 PM 38.4850 -77.9894 199° South 442 509 32,000  Level Washington Center
Fri 08:39:46 PM 38.3817 -78.0522 205° Southwest 432 497 32,000  Level Washington Center
Fri 08:40:47 PM 38.2761 -78.1150 205° Southwest 421 484 32,000  Level Washington Center
Fri 08:41:47 PM 38.1706 -78.1747 204° Southwest 421 484 32,000  Level Washington Center
Fri 08:42:45 PM 38.0669 -78.2344 204° Southwest 421 484 32,000  Level Washington Center
Fri 08:43:46 PM 37.9636 -78.2914 203° Southwest 415 478 32,000  Level Washington Center
Fri 08:44:47 PM 37.8600 -78.3536 205° Southwest 410 472 32,000  Level Washington Center
Fri 08:45:45 PM 37.7436 -78.4203 204° Southwest 410 472 32,000  Level Washington Center
Fri 08:46:46 PM 37.6381 -78.4767 203° Southwest 410 472 32,000  Level Washington Center
Fri 08:47:46 PM 37.5322 -78.5381 205° Southwest 410 472 32,000  Level Washington Center
Fri 08:48:47 PM 37.4264 -78.5967 204° Southwest 415 478 32,000  Level Washington Center
Fri 08:49:46 PM 37.3314 -78.6478 203° Southwest 415 478 32,000  Level Washington Center
Fri 08:50:47 PM 37.2275 -78.7064 204° Southwest 415 478 32,000  Level Washington Center
Fri 08:51:47 PM 37.1217 -78.7672 205° Southwest 415 478 32,000  Level Washington Center
Fri 08:52:45 PM 37.0136 -78.8278 204° Southwest 420 483 32,000  Level Washington Center
Fri 08:53:45 PM 36.9078 -78.8856 204° Southwest 420 483 32,000  Level Washington Center
Fri 08:54:46 PM 36.7911 -78.9506 204° Southwest 420 483 32,000  Level Washington Center
Fri 08:55:47 PM 36.6833 -79.0081 203° Southwest 420 483 32,000  Level Washington Center
Fri 08:56:45 PM 36.5819 -79.0425 195° South 420 483 32,000  Level Washington Center
Fri 08:57:46 PM 36.4622 -79.0758 193° South 428 493 32,000  Level Washington Center
Fri 08:58:47 PM 36.3464 -79.1119 194° South 434 499 32,000  Level Washington Center
Fri 08:59:47 PM 36.2306 -79.1428 192° South 434 499 32,000  Level Washington Center
Fri 09:00:47 PM 36.1128 -79.1761 193° South 434 499 32,000  Level Washington Center
Fri 09:01:46 PM 35.9950 -79.2094 193° South 434 499 32,000  Level Washington Center
Fri 09:02:46 PM 35.8792 -79.2425 193° South 434 499 32,000  Level Washington Center
Fri 09:03:47 PM 35.7633 -79.2756 193° South 439 505 32,000  Level Washington Center
Fri 09:04:47 PM 35.6456 -79.3083 193° South 439 505 32,000  Level Washington Center
Fri 09:05:45 PM 35.5278 -79.3386 192° South 429 494 32,000  Level Washington Center
Fri 09:06:46 PM 35.4014 -79.3736 193° South 429 494 32,000  Level Washington Center
Fri 09:07:46 PM 35.2919 -79.4039 193° South 440 506 32,000  Level Washington Center
Fri 09:08:47 PM 35.1761 -79.4367 193° South 440 506 32,000  Level Washington Center
Fri 09:09:47 PM 35.0583 -79.4664 192° South 434 499 32,000  Level Washington Center
Fri 09:11:38 PM 34.8222 -79.5292 192° South 437 503 32,000  Level Jacksonville Center
Fri 09:12:38 PM 34.7061 -79.5617 193° South 437 503 32,000  Level Jacksonville Center
Fri 09:13:38 PM 34.5881 -79.5939 193° South 432 497 32,000  Level Jacksonville Center
Fri 09:14:38 PM 34.4811 -79.6458 202° Southwest 427 491 32,000  Level Jacksonville Center
Fri 09:15:38 PM 34.3869 -79.7222 214° Southwest 412 474 32,000 -50 Level Jacksonville Center
Fri 09:16:38 PM 34.2969 -79.7933 213° Southwest 405 466 31,900 -50 Descending Jacksonville Center
Fri 09:17:38 PM 34.2047 -79.8644 213° Southwest 405 466 31,900  Level Jacksonville Center
Fri 09:18:38 PM 34.1086 -79.9356 211° Southwest 405 466 31,900  Level Jacksonville Center
Fri 09:19:38 PM 34.0100 -80.0092 212° Southwest 411 473 31,900  Level Jacksonville Center
Fri 09:20:38 PM 33.9178 -80.0822 213° Southwest 411 473 31,900  Level Jacksonville Center
Fri 09:21:38 PM 33.8214 -80.1528 211° Southwest 411 473 31,900  Level Jacksonville Center
Fri 09:22:38 PM 33.7247 -80.2281 213° Southwest 411 473 31,900  Level Jacksonville Center
Fri 09:23:38 PM 33.6325 -80.2983 212° Southwest 411 473 31,900 50 Level Jacksonville Center
Fri 09:24:38 PM 33.5358 -80.3708 212° Southwest 411 473 32,000  Climbing Jacksonville Center
Fri 09:25:38 PM 33.4392 -80.4433 212° Southwest 411 473 31,900  Descending Jacksonville Center
Fri 09:26:38 PM 33.3444 -80.5156 213° Southwest 411 473 32,000  Climbing Jacksonville Center
Fri 09:27:38 PM 33.2561 -80.5825 212° Southwest 411 473 31,900 -50 Descending Jacksonville Center
Fri 09:28:38 PM 33.1592 -80.6494 210° Southwest 411 473 31,900  Level Jacksonville Center
Fri 09:29:38 PM 33.0622 -80.7214 212° Southwest 411 473 31,900  Level Jacksonville Center
Fri 09:30:38 PM 32.9675 -80.7931 212° Southwest 411 473 31,900  Level Jacksonville Center
Fri 09:31:38 PM 32.8683 -80.8669 212° Southwest 411 473 31,900 50 Level Jacksonville Center
Fri 09:32:38 PM 32.7694 -80.9383 211° Southwest 417 480 32,000  Climbing Jacksonville Center
Fri 09:33:38 PM 32.6722 -81.0097 212° Southwest 417 480 31,900  Descending Jacksonville Center
Fri 09:34:38 PM 32.5753 -81.0806 212° Southwest 417 480 32,000 50 Climbing Jacksonville Center
Fri 09:35:38 PM 32.4700 -81.1592 212° Southwest 412 474 32,000 -50 Level Jacksonville Center
Fri 09:36:38 PM 32.3789 -81.2222 210° Southwest 412 474 31,900  Descending Jacksonville Center
Fri 09:37:38 PM 32.2817 -81.2928 212° Southwest 417 480 32,000 50 Climbing Jacksonville Center
Fri 09:38:38 PM 32.1739 -81.3561 206° Southwest 422 486 32,000  Level Jacksonville Center
Fri 09:39:38 PM 32.0431 -81.4097 199° South 445 512 32,000  Level Jacksonville Center
Fri 09:40:38 PM 31.9392 -81.4481 197° South 445 512 32,000  Level Jacksonville Center
Fri 09:41:38 PM 31.8103 -81.5014 199° South 450 518 32,000  Level Jacksonville Center
Fri 09:42:38 PM 31.7022 -81.5422 198° South 450 518 32,000  Level Jacksonville Center
Fri 09:43:38 PM 31.5733 -81.5953 199° South 445 512 32,000  Level Jacksonville Center
Fri 09:44:38 PM 31.4547 -81.6408 198° South 455 524 32,000 -50 Level Jacksonville Center
Fri 09:45:38 PM 31.3361 -81.6861 198° South 450 518 31,900 -50 Descending Jacksonville Center
Fri 09:46:38 PM 31.2175 -81.7361 200° South 450 518 31,900  Level Jacksonville Center
Fri 09:47:38 PM 31.1011 -81.7814 198° South 441 507 31,900  Level Jacksonville Center
Fri 09:48:38 PM 30.9825 -81.8264 198° South 441 507 31,900  Level Jacksonville Center
Fri 09:49:38 PM 30.8636 -81.8711 198° South 441 507 31,900  Level Jacksonville Center
Fri 09:50:38 PM 30.7450 -81.9183 199° South 441 507 31,900  Level Jacksonville Center
Fri 09:51:38 PM 30.6264 -81.9656 199° South 446 513 31,900  Level Jacksonville Center
Fri 09:52:38 PM 30.5181 -82.0003 195° South 446 513 31,900  Level Jacksonville Center
Fri 09:53:38 PM 30.3994 -82.0472 199° South 446 513 31,900 50 Level Jacksonville Center
Fri 09:54:38 PM 30.2956 -82.1178 210° Southwest 440 506 32,000  Climbing Jacksonville Center
Fri 09:55:38 PM 30.2000 -82.1931 214° Southwest 430 495 31,900 -100 Descending Jacksonville Center
Fri 09:56:38 PM 30.0939 -82.2658 211° Southwest 435 501 31,800 -600 Descending Jacksonville Center
Fri 09:57:38 PM 29.9542 -82.3078 195° South 446 513 30,700 -1,000 Descending Jacksonville Center
Fri 09:58:38 PM 29.8289 -82.3253 187° South 452 520 29,800 -1,000 Descending Jacksonville Center
Fri 09:59:38 PM 29.7036 -82.3403 186° South 458 527 28,700 -1,450 Descending Jacksonville Center
Fri 10:00:38 PM 29.5764 -82.3600 188° South 458 527 26,900 -1,250 Descending Jacksonville Center
Fri 10:01:38 PM 29.4492 -82.3464 175° South 458 527 26,200 -1,300 Descending Jacksonville Center
Fri 10:02:38 PM 29.3236 -82.3281 173° South 458 527 24,300 -1,750 Descending Jacksonville Center
Fri 10:03:38 PM 29.2025 -82.3122 173° South 458 527 22,700 -1,750 Descending Jacksonville Center
Fri 10:04:38 PM 29.0961 -82.2986 174° South 436 502 20,800 -2,100 Descending Jacksonville Center
Fri 10:05:38 PM 28.9936 -82.2897 176° South 392 451 18,500 -2,300 Descending Jacksonville Center
Fri 10:06:38 PM 28.9167 -82.3186 198° South 342 394 16,200 -2,350 Descending Jacksonville Center
Fri 10:07:38 PM 28.8269 -82.3333 188° South 337 388 13,800 -1,600 Descending Jacksonville Center
Fri 10:08:38 PM 28.7517 -82.2744 146° Southeast 307 353 13,000 -580 Descending Jacksonville Center
Fri 10:10:34 PM 28.5833 -82.2667 178° South 302 348 12,100 -614 Descending Tampa TRACON
Fri 10:11:34 PM 28.5167 -82.3167 213° Southwest 290 334 11,200 -950 Descending Tampa TRACON
Fri 10:12:34 PM 28.4667 -82.4000 236° Southwest 290 334 10,200 -600 Descending Tampa TRACON
Fri 10:13:34 PM 28.4167 -82.4667 230° Southwest 287 330 10,000 -400 Descending Tampa TRACON
Fri 10:14:34 PM 28.3833 -82.5333 240° Southwest 277 319 9,400 -1,050 Descending Tampa TRACON
Fri 10:15:34 PM 28.3333 -82.6000 230° Southwest 269 310 7,900 -1,950 Descending Tampa TRACON
Fri 10:16:34 PM 28.3000 -82.6667 240° Southwest 257 296 5,500 -2,474 Descending Tampa TRACON
Fri 10:17:28 PM 28.2333 -82.7167 213° Southwest 261 300 3,200 -1,579 Descending Tampa TRACON
Fri 10:18:28 PM 28.1833 -82.7333 196° South 210 242 2,500 -318 Descending Tampa TRACON
Fri 10:19:40 PM 28.1167 -82.7333 180° South 161 185 2,500  Level Tampa TRACON
Fri 10:20:28 PM 28.0833 -82.7167 156° South 168 193 2,500 -158 Level Tampa TRACON
Fri 10:21:34 PM 28.0333 -82.7167 180° South 165 190 2,200 -545 Descending Tampa TRACON
Fri 10:22:40 PM 28.0000 -82.7000 156° South 124 143 1,300 -762 Descending Tampa TRACON
Fri 10:23:40 PM 27.9667 -82.7000 180° South 128 147 600 -700 Descending Tampa TRACON

Login

Don't have an account? Register now (free) for customized features, flight alerts, and more!